Time;durP1;ratioP1;P1;durP2;ratioP2;P2;SDS_P1;SDS_P2;PMS_P1;PMS_P2;Temp;Humidity;BMP_temperature;BMP_pressure;BME280_temperature;BME280_humidity;BME280_pressure;Samples;Min_cycle;Max_cycle;Signal;HPM_P1;HPM_P2
2021/01/07 00:01:19;;;;;;;12.18;7.00;;;;;;;1.55;95.92;101531.09;4943330;28;20047;-81
2021/01/07 00:03:44;;;;;;;14.30;8.02;;;;;;;1.55;95.76;101526.69;4959810;28;20032;-81
2021/01/07 00:06:13;;;;;;;13.80;8.18;;;;;;;1.56;95.79;101527.53;4946675;28;20028;-81
2021/01/07 00:08:39;;;;;;;16.13;7.82;;;;;;;1.13;96.12;101454.28;4960839;28;20043;-82
2021/01/07 00:11:05;;;;;;;12.18;7.53;;;;;;;1.54;96.07;101524.97;4932310;29;20386;-82
2021/01/07 00:13:30;;;;;;;12.77;7.13;;;;;;;1.31;95.56;101482.28;4949505;29;20401;-82
2021/01/07 00:15:56;;;;;;;14.00;7.07;;;;;;;1.52;95.59;101516.31;4933434;28;20085;-82
2021/01/07 00:18:21;;;;;;;9.07;7.53;;;;;;;1.34;95.95;101486.53;4950565;28;20027;-82
2021/01/07 00:20:47;;;;;;;11.93;7.38;;;;;;;1.51;95.82;101519.84;4947369;28;20039;-82
2021/01/07 00:23:13;;;;;;;15.63;8.27;;;;;;;1.48;96.94;101512.97;4932470;29;20205;-74
2021/01/07 00:25:39;;;;;;;13.48;7.70;;;;;;;1.51;96.61;101515.47;4948864;28;20063;-74
2021/01/07 00:28:04;;;;;;;11.10;7.47;;;;;;;1.50;96.46;101518.16;4916080;29;20052;-81
2021/01/07 00:30:30;;;;;;;9.18;6.47;;;;;;;1.43;96.59;101501.00;4955208;28;20039;-74
2021/01/07 00:32:55;;;;;;;10.23;7.40;;;;;;;1.53;96.94;101515.38;4962918;28;20050;-74
2021/01/07 00:35:21;;;;;;;9.43;6.82;;;;;;;1.37;96.61;101483.75;4944286;28;20238;-74
2021/01/07 00:37:46;;;;;;;9.85;6.90;;;;;;;1.52;96.49;101513.66;4934039;29;20043;-74
2021/01/07 00:40:12;;;;;;;9.52;7.00;;;;;;;1.49;97.21;101508.59;4948938;28;20032;-82
2021/01/07 00:42:37;;;;;;;8.30;6.93;;;;;;;1.49;97.05;101508.59;4945720;28;20054;-82
2021/01/07 00:45:04;;;;;;;11.18;6.38;;;;;;;1.53;96.43;101502.22;4944723;28;20027;-74
2021/01/07 00:47:29;;;;;;;7.80;6.35;;;;;;;1.51;96.12;101504.06;4944657;28;20418;-84
2021/01/07 00:49:55;;;;;;;7.63;6.47;;;;;;;1.49;95.66;101501.53;4948095;28;20039;-81
2021/01/07 00:52:20;;;;;;;8.80;5.70;;;;;;;1.46;96.47;101504.31;4945117;28;20039;-81
2021/01/07 00:54:46;;;;;;;9.27;5.47;;;;;;;1.48;96.22;101496.38;4960933;28;20398;-75
2021/01/07 00:57:11;;;;;;;6.78;5.05;;;;;;;1.46;95.48;101492.97;4944606;28;20090;-75
2021/01/07 00:59:37;;;;;;;9.07;4.57;;;;;;;1.41;95.72;101494.94;4952083;28;20027;-83
2021/01/07 01:02:02;;;;;;;8.30;5.10;;;;;;;1.35;96.65;101489.09;4907745;29;20039;-82
2021/01/07 01:04:28;;;;;;;8.98;5.45;;;;;;;1.33;96.79;101497.97;4957550;28;20043;-82
2021/01/07 01:06:53;;;;;;;6.45;4.70;;;;;;;1.34;96.85;101495.28;4933615;28;20048;-82
2021/01/07 01:09:19;;;;;;;7.28;4.90;;;;;;;1.08;96.32;101446.63;4940907;28;20295;-76
2021/01/07 01:11:45;;;;;;;7.40;4.47;;;;;;;1.32;96.40;101481.34;4934627;28;20044;-85
2021/01/07 01:14:12;;;;;;;5.72;4.47;;;;;;;1.31;96.01;101495.44;4933384;29;20027;-82
2021/01/07 01:16:38;;;;;;;5.85;4.57;;;;;;;1.30;96.32;101491.09;4935955;28;20027;-84
2021/01/07 01:19:03;;;;;;;6.88;4.68;;;;;;;1.14;96.97;101463.84;4950600;29;20015;-81
2021/01/07 01:21:29;;;;;;;8.70;4.63;;;;;;;1.26;97.01;101492.16;4950361;28;20034;-76
2021/01/07 01:23:55;;;;;;;6.13;4.05;;;;;;;1.01;96.74;101439.97;4951128;28;20429;-81
2021/01/07 01:26:20;;;;;;;8.73;3.90;;;;;;;1.03;96.53;101441.59;4949622;28;20131;-76
2021/01/07 01:28:46;;;;;;;5.82;4.00;;;;;;;1.04;96.44;101434.53;4947047;28;20031;-76
2021/01/07 01:31:11;;;;;;;7.55;4.38;;;;;;;1.21;96.37;101465.28;4948627;28;20031;-82
2021/01/07 01:33:37;;;;;;;5.32;4.03;;;;;;;1.13;95.96;101447.25;4949270;28;20130;-82
2021/01/07 01:36:04;;;;;;;5.40;3.70;;;;;;;1.32;96.10;101480.47;4937280;28;20031;-76
2021/01/07 01:38:29;;;;;;;5.97;4.38;;;;;;;1.27;96.88;101475.47;4962797;28;20067;-83
2021/01/07 01:41:00;;;;;;;8.85;4.45;;;;;;;1.28;97.04;101476.31;4949197;28;20090;-84
2021/01/07 01:43:25;;;;;;;6.47;4.40;;;;;;;1.29;97.25;101480.66;4942967;28;20046;-75
2021/01/07 01:45:52;;;;;;;6.35;3.90;;;;;;;1.31;97.21;101471.75;4926968;28;20427;-80
2021/01/07 01:48:18;;;;;;;6.47;3.53;;;;;;;1.28;96.98;101477.16;4954591;28;20256;-82
2021/01/07 01:50:43;;;;;;;5.80;3.35;;;;;;;1.18;96.82;101455.75;4932114;28;20031;-81
2021/01/07 01:53:09;;;;;;;5.75;3.05;;;;;;;1.32;96.73;101473.47;4931950;28;20658;-82
2021/01/07 01:55:34;;;;;;;4.43;3.30;;;;;;;1.18;96.78;101450.47;4944899;28;20049;-81
2021/01/07 01:57:59;;;;;;;6.60;3.08;;;;;;;1.33;97.35;101471.66;4945415;28;20027;-81
2021/01/07 02:00:25;;;;;;;3.25;2.72;;;;;;;1.35;97.08;101473.31;4948159;28;20030;-82
2021/01/07 02:02:50;;;;;;;7.55;3.53;;;;;;;1.34;96.69;101468.97;4951697;28;20059;-81
2021/01/07 02:05:16;;;;;;;7.68;3.50;;;;;;;1.32;96.98;101462.06;4967928;28;20034;-82
2021/01/07 02:07:43;;;;;;;3.78;2.88;;;;;;;1.37;97.25;101470.59;4944641;28;20465;-83
2021/01/07 02:10:09;;;;;;;4.38;2.95;;;;;;;1.40;96.79;101469.56;4935606;28;20101;-76
2021/01/07 02:12:35;;;;;;;4.10;3.03;;;;;;;1.13;96.74;101423.59;4941350;28;20030;-81
2021/01/07 02:15:00;;;;;;;4.30;3.25;;;;;;;1.37;96.55;101468.81;4928605;28;20070;-83
2021/01/07 02:17:26;;;;;;;3.47;3.00;;;;;;;1.28;97.24;101450.03;4942677;28;20360;-82
2021/01/07 02:19:56;;;;;;;7.10;3.65;;;;;;;1.20;97.48;101439.91;4932840;29;20039;-82
2021/01/07 02:22:22;;;;;;;7.63;3.65;;;;;;;1.35;97.95;101467.19;4941775;29;20035;-81
2021/01/07 02:24:47;;;;;;;4.85;3.67;;;;;;;1.38;97.34;101467.88;4954501;28;20031;-82
2021/01/07 02:27:13;;;;;;;5.80;3.58;;;;;;;1.37;97.79;101462.72;4949323;28;20035;-82
2021/01/07 02:29:39;;;;;;;5.25;3.70;;;;;;;1.23;97.71;101444.97;4949499;28;20035;-82
2021/01/07 02:32:05;;;;;;;4.90;3.90;;;;;;;1.37;97.92;101465.34;4942947;28;20039;-82
2021/01/07 02:34:30;;;;;;;7.35;4.22;;;;;;;1.00;98.13;101404.94;4945147;28;20089;-76
2021/01/07 02:36:56;;;;;;;6.85;3.92;;;;;;;1.38;98.03;101461.78;4931537;29;20027;-82
2021/01/07 02:39:21;;;;;;;7.53;4.03;;;;;;;1.37;97.37;101460.06;4940876;28;20496;-82
2021/01/07 02:41:53;;;;;;;7.82;4.30;;;;;;;1.39;98.11;101458.22;4945174;28;20039;-81
2021/01/07 02:44:20;;;;;;;7.72;4.35;;;;;;;1.30;98.86;101437.63;4948330;28;20042;-76
2021/01/07 02:46:46;;;;;;;6.80;4.30;;;;;;;1.10;98.19;101407.09;4949190;28;20233;-81
2021/01/07 02:49:12;;;;;;;8.65;4.20;;;;;;;1.39;98.35;101450.34;4963270;28;20106;-80
2021/01/07 02:51:37;;;;;;;6.53;4.10;;;;;;;1.40;98.17;101446.78;4942037;28;20027;-82
2021/01/07 02:54:03;;;;;;;7.55;4.22;;;;;;;1.35;97.86;101439.13;4946618;28;20028;-76
2021/01/07 02:56:30;;;;;;;5.90;3.92;;;;;;;1.45;97.85;101443.91;4941186;28;20054;-82
2021/01/07 02:58:56;;;;;;;5.90;4.10;;;;;;;1.27;97.70;101422.03;4950514;28;20395;-82
2021/01/07 03:01:21;;;;;;;6.88;4.93;;;;;;;1.39;97.63;101439.81;4944548;28;20036;-81
2021/01/07 03:03:47;;;;;;;5.75;4.30;;;;;;;1.38;98.03;101436.31;4949806;29;20039;-76
2021/01/07 03:06:12;;;;;;;8.52;4.40;;;;;;;1.38;97.86;101438.09;4944720;28;20043;-82
2021/01/07 03:08:38;;;;;;;8.75;4.63;;;;;;;1.38;98.32;101435.47;4936111;29;20462;-82
2021/01/07 03:11:03;;;;;;;9.40;5.05;;;;;;;1.38;98.70;101436.31;4941458;28;20554;-82
2021/01/07 03:13:29;;;;;;;5.78;4.78;;;;;;;1.21;97.95;101404.78;4939282;28;20035;-82
2021/01/07 03:15:54;;;;;;;11.05;5.13;;;;;;;1.19;98.03;101401.38;4946719;28;20135;-82
2021/01/07 03:18:20;;;;;;;7.88;4.97;;;;;;;1.42;98.59;101425.63;4948449;28;20054;-83
2021/01/07 03:20:45;;;;;;;8.13;4.65;;;;;;;1.23;98.43;101400.28;4949387;29;20023;-82
2021/01/07 03:23:11;;;;;;;7.38;4.55;;;;;;;1.43;98.33;101428.19;4952001;28;20031;-83
2021/01/07 03:25:36;;;;;;;10.40;4.63;;;;;;;1.45;98.24;101421.06;4949679;28;20102;-82
2021/01/07 03:28:02;;;;;;;5.47;4.22;;;;;;;1.44;97.69;101424.63;4947657;28;20584;-81
2021/01/07 03:30:27;;;;;;;6.03;3.97;;;;;;;1.45;97.85;101420.22;4955838;28;20043;-81
2021/01/07 03:32:53;;;;;;;7.47;4.90;;;;;;;1.47;98.00;101419.22;4939899;28;20117;-81
2021/01/07 03:35:18;;;;;;;6.28;4.68;;;;;;;1.47;97.92;101413.94;4961836;28;20030;-81
2021/01/07 03:37:43;;;;;;;7.80;4.28;;;;;;;1.51;97.67;101417.25;4948712;28;20511;-81
2021/01/07 03:40:10;;;;;;;5.30;4.13;;;;;;;1.50;97.59;101416.44;4951444;28;20403;-81
2021/01/07 03:42:35;;;;;;;6.35;3.78;;;;;;;1.52;97.44;101414.56;4939675;28;20027;-81
2021/01/07 03:45:01;;;;;;;10.43;4.70;;;;;;;1.52;97.76;101411.94;4945143;28;20031;-82
2021/01/07 03:47:26;;;;;;;10.77;4.43;;;;;;;1.24;97.54;101365.16;4958688;28;20525;-81
2021/01/07 03:49:51;;;;;;;8.50;3.80;;;;;;;1.41;97.87;101385.34;4966639;28;20030;-81
2021/01/07 03:52:17;;;;;;;8.48;4.53;;;;;;;1.18;97.83;101353.19;4949881;28;20454;-81
2021/01/07 03:54:42;;;;;;;8.45;5.10;;;;;;;1.40;98.00;101388.03;4947330;28;20031;-81
2021/01/07 03:57:08;;;;;;;7.38;4.40;;;;;;;1.30;97.68;101378.00;4901790;28;20038;-81
2021/01/07 03:59:33;;;;;;;8.10;4.25;;;;;;;1.33;98.19;101372.59;4944813;29;20114;-81
2021/01/07 04:01:59;;;;;;;10.23;4.63;;;;;;;1.49;98.40;101411.25;4944732;28;20110;-82
2021/01/07 04:04:25;;;;;;;9.32;4.40;;;;;;;1.48;98.10;101405.13;4949559;28;20078;-81
2021/01/07 04:06:50;;;;;;;6.50;4.22;;;;;;;1.49;98.22;101404.19;4944607;28;20059;-81
2021/01/07 04:09:16;;;;;;;9.40;4.80;;;;;;;1.22;98.60;101370.53;4949081;28;20303;-81
2021/01/07 04:11:41;;;;;;;5.95;4.50;;;;;;;1.49;98.44;101406.00;4941085;28;20038;-81
2021/01/07 04:14:07;;;;;;;6.20;4.07;;;;;;;1.46;98.49;101401.72;4957015;28;20046;-81
2021/01/07 04:16:32;;;;;;;10.15;4.35;;;;;;;1.49;98.53;101395.47;4933490;28;20035;-75
2021/01/07 04:18:57;;;;;;;7.97;4.90;;;;;;;1.47;98.77;101399.97;4923818;28;20051;-82
2021/01/07 04:21:23;;;;;;;7.28;4.43;;;;;;;1.47;98.41;101398.16;4938165;28;20042;-82
2021/01/07 04:23:49;;;;;;;7.25;4.55;;;;;;;1.46;98.75;101396.47;4919087;28;20031;-82
2021/01/07 04:26:15;;;;;;;6.45;4.63;;;;;;;1.47;98.70;101392.06;4938391;28;20086;-82
2021/01/07 04:28:40;;;;;;;6.18;4.13;;;;;;;1.50;99.30;101391.88;4944942;28;20044;-82
2021/01/07 04:31:06;;;;;;;10.23;5.60;;;;;;;1.24;98.85;101343.31;4944739;28;20073;-82
2021/01/07 04:33:31;;;;;;;7.60;4.47;;;;;;;1.34;99.11;101355.03;4932848;29;20312;-82
2021/01/07 04:35:57;;;;;;;6.57;4.28;;;;;;;1.49;98.90;101393.69;4965979;28;20039;-82
2021/01/07 04:38:22;;;;;;;7.45;4.32;;;;;;;1.50;98.98;101386.63;4966121;28;20038;-82
2021/01/07 04:40:47;;;;;;;7.40;4.00;;;;;;;1.52;99.28;101385.63;4944027;28;20062;-81
2021/01/07 04:43:13;;;;;;;7.50;4.30;;;;;;;1.52;99.00;101383.00;4907250;28;20420;-81
2021/01/07 04:45:38;;;;;;;8.82;4.50;;;;;;;1.30;98.95;101335.06;4943781;28;20483;-83
2021/01/07 04:48:04;;;;;;;6.80;4.18;;;;;;;1.34;98.79;101341.88;4940372;28;20117;-82
2021/01/07 04:50:29;;;;;;;7.78;3.80;;;;;;;1.59;98.77;101373.00;4941967;28;20070;-82
2021/01/07 04:52:55;;;;;;;9.30;4.15;;;;;;;1.60;98.66;101373.84;4917987;29;20027;-82
2021/01/07 04:55:21;;;;;;;6.13;4.30;;;;;;;1.61;98.51;101368.50;4941882;28;20391;-81
2021/01/07 04:57:46;;;;;;;5.10;3.72;;;;;;;1.56;98.54;101361.81;4939858;28;20036;-81
2021/01/07 05:00:12;;;;;;;6.10;3.13;;;;;;;1.64;98.38;101376.22;4934215;28;21521;-81
2021/01/07 05:02:38;;;;;;;7.28;3.90;;;;;;;1.63;98.39;101369.25;4944499;28;20075;-82
2021/01/07 05:05:04;;;;;;;6.80;3.42;;;;;;;1.65;98.54;101375.28;4930469;28;20031;-82
2021/01/07 05:07:30;;;;;;;5.30;3.78;;;;;;;1.55;98.84;101354.84;4945266;28;20557;-76
2021/01/07 05:10:00;;;;;;;5.60;3.63;;;;;;;1.68;98.79;101371.66;4944741;28;20035;-84
2021/01/07 05:12:25;;;;;;;6.93;4.05;;;;;;;1.71;98.48;101366.22;4950867;28;20521;-82
2021/01/07 05:14:51;;;;;;;5.60;3.15;;;;;;;1.73;98.22;101374.88;4944392;28;20031;-82
2021/01/07 05:17:16;;;;;;;5.85;3.45;;;;;;;1.75;98.75;101370.38;4938650;28;20039;-77
2021/01/07 05:19:42;;;;;;;7.93;3.83;;;;;;;1.59;98.44;101336.19;4927502;29;20042;-77
2021/01/07 05:22:07;;;;;;;4.40;3.38;;;;;;;1.76;98.40;101364.19;4954064;29;20027;-76
2021/01/07 05:24:33;;;;;;;6.30;3.83;;;;;;;1.75;98.70;101365.13;4960921;28;20158;-82
2021/01/07 05:27:11;;;;;;;4.45;3.42;;;;;;;1.76;98.72;101360.72;4964878;28;20486;-81
2021/01/07 05:29:38;;;;;;;8.00;3.30;;;;;;;1.75;99.06;101356.41;4950850;28;20047;-82
2021/01/07 05:32:04;;;;;;;10.90;4.82;;;;;;;1.79;99.23;101364.03;4944904;28;20035;-82
2021/01/07 05:34:29;;;;;;;9.52;6.03;;;;;;;1.59;98.78;101322.16;4953158;29;20038;-81
2021/01/07 05:37:01;;;;;;;10.43;5.80;;;;;;;1.42;98.78;101295.00;4950595;28;20090;-82
2021/01/07 05:39:33;;;;;;;9.35;6.40;;;;;;;1.79;98.93;101350.88;4950902;28;20413;-82
2021/01/07 05:42:01;;;;;;;7.60;5.82;;;;;;;1.78;99.35;101351.81;4964835;28;20470;-82
2021/01/07 05:44:26;;;;;;;6.80;4.27;;;;;;;1.83;99.32;101356.81;4937489;29;20039;-81
2021/01/07 05:46:52;;;;;;;6.20;4.00;;;;;;;1.83;99.06;101357.66;4943994;28;20493;-82
2021/01/07 05:49:20;;;;;;;6.45;3.83;;;;;;;1.84;99.15;101351.47;4952781;28;20090;-82
2021/01/07 05:51:47;;;;;;;;;;;;;;;1.81;98.96;101349.03;4933288;29;20035;-77
2021/01/07 05:54:12;;;;;;;9.75;3.03;;;;;;;1.74;99.29;101333.66;4949741;28;23956;-82
2021/01/07 05:56:37;;;;;;;4.00;3.08;;;;;;;1.80;99.01;101355.22;4923236;29;20031;-77
2021/01/07 05:59:03;;;;;;;5.80;3.03;;;;;;;1.84;99.37;101346.19;4925848;28;20078;-82
2021/01/07 06:01:28;;;;;;;4.93;3.08;;;;;;;1.65;99.66;101325.31;4940512;28;20520;-82
2021/01/07 06:03:54;;;;;;;4.05;2.60;;;;;;;1.85;99.40;101347.06;4920666;28;20031;-83
2021/01/07 06:06:20;;;;;;;3.25;2.78;;;;;;;1.88;98.89;101346.03;4927966;28;20040;-83
2021/01/07 06:08:54;;;;;;;5.03;3.00;;;;;;;1.71;99.27;101315.38;4940455;28;20094;-83
2021/01/07 06:11:20;;;;;;;4.95;2.78;;;;;;;1.86;99.11;101347.91;4929092;28;20036;-83
2021/01/07 06:13:49;;;;;;;3.95;2.47;;;;;;;1.71;99.14;101326.75;4949317;28;20393;-83
2021/01/07 06:16:15;;;;;;;8.60;2.78;;;;;;;1.46;98.88;101283.34;4945024;28;20410;-83
2021/01/07 06:18:41;;;;;;;6.80;2.80;;;;;;;1.66;98.99;101319.09;4948005;28;20046;-83
2021/01/07 06:21:10;;;;;;;6.28;2.80;;;;;;;1.87;98.47;101349.59;4945493;28;20038;-83
2021/01/07 06:23:43;;;;;;;4.82;3.40;;;;;;;1.84;99.06;101351.47;4944447;28;20188;-84
2021/01/07 06:26:21;;;;;;;6.22;3.30;;;;;;;1.84;98.92;101346.19;4942283;28;20034;-83
2021/01/07 06:28:49;;;;;;;;;;;;;;;1.80;98.75;101359.59;4947063;28;20047;-77
2021/01/07 06:31:15;;;;;;;7.67;4.93;;;;;;;1.81;98.80;101348.16;4963103;28;19914;-83
2021/01/07 06:33:42;;;;;;;12.50;7.15;;;;;;;1.74;98.80;101342.38;4967915;28;20314;-83
2021/01/07 06:36:08;;;;;;;9.05;5.45;;;;;;;1.86;98.78;101353.16;4933111;29;20031;-82
2021/01/07 06:38:33;;;;;;;9.15;5.38;;;;;;;1.21;98.63;101247.88;4965781;28;20050;-83
2021/01/07 06:41:00;;;;;;;12.93;7.03;;;;;;;1.79;98.95;101356.13;4937175;28;20129;-82
2021/01/07 06:43:26;;;;;;;10.93;6.55;;;;;;;1.82;98.68;101347.22;4961423;28;20496;-82
2021/01/07 06:45:53;;;;;;;9.73;6.75;;;;;;;1.53;98.95;101300.53;4947776;28;20094;-76
2021/01/07 06:48:25;;;;;;;10.43;6.95;;;;;;;1.72;98.76;101335.50;4942784;28;20047;-83
2021/01/07 06:50:54;;;;;;;10.63;6.57;;;;;;;1.80;98.58;101354.34;4944626;28;20031;-82
2021/01/07 06:53:19;;;;;;;8.80;6.07;;;;;;;1.77;98.49;101343.97;4960157;28;20050;-83
2021/01/07 06:56:09;;;;;;;12.63;6.78;;;;;;;1.80;98.84;101354.34;4944216;28;20113;-82
2021/01/07 06:58:35;;;;;;;12.93;7.78;;;;;;;1.77;99.37;101359.78;4952156;28;20058;-82
2021/01/07 07:01:00;;;;;;;11.13;7.22;;;;;;;1.79;99.53;101350.88;4944337;28;20643;-82
2021/01/07 07:03:26;;;;;;;11.15;6.82;;;;;;;1.82;99.34;101357.75;4946043;28;20039;-82
2021/01/07 07:05:53;;;;;;;9.27;5.65;;;;;;;1.76;99.29;101348.41;4932093;29;20070;-83
2021/01/07 07:08:21;;;;;;;7.30;5.40;;;;;;;1.88;98.86;101354.78;4940499;28;20699;-76
2021/01/07 07:10:56;;;;;;;9.65;5.22;;;;;;;1.87;99.18;101354.84;4934023;28;20562;-81
2021/01/07 07:13:25;;;;;;;8.48;5.07;;;;;;;1.88;99.56;101356.56;4955130;28;20525;-84
2021/01/07 07:15:50;;;;;;;7.95;5.45;;;;;;;1.81;99.47;101340.25;4926634;29;20030;-81
2021/01/07 07:18:26;;;;;;;9.45;4.93;;;;;;;1.84;99.70;101340.09;4958257;28;20028;-81
2021/01/07 07:20:51;;;;;;;7.95;5.35;;;;;;;1.82;99.62;101341.97;4928203;28;20031;-78
2021/01/07 07:23:23;;;;;;;10.45;5.35;;;;;;;1.67;99.18;101309.44;4948050;28;20050;-82
2021/01/07 07:25:53;;;;;;;6.25;3.95;;;;;;;1.68;99.43;101322.50;4958304;28;20031;-82
2021/01/07 07:28:19;;;;;;;6.25;3.70;;;;;;;1.61;99.20;101309.78;4946915;28;20031;-76
2021/01/07 07:30:48;;;;;;;8.70;3.97;;;;;;;1.86;99.19;101358.44;4944516;28;20035;-83
2021/01/07 07:33:32;;;;;;;;;;;;;;;1.81;99.46;101349.03;4951672;28;20143;-76
2021/01/07 07:35:57;;;;;;;6.55;3.60;;;;;;;1.70;99.32;101332.09;4946836;28;19911;-77
2021/01/07 07:38:39;;;;;;;8.50;4.20;;;;;;;1.85;99.32;101357.59;4941201;28;20035;-84
2021/01/07 07:41:09;;;;;;;11.43;4.40;;;;;;;1.59;99.47;101320.38;4956070;28;20117;-84
2021/01/07 07:43:34;;;;;;;7.50;4.25;;;;;;;1.61;99.68;101321.16;4948460;28;20055;-83
2021/01/07 07:46:00;;;;;;;6.90;4.03;;;;;;;1.87;99.52;101355.72;4949167;28;20114;-82
2021/01/07 07:48:27;;;;;;;7.93;4.80;;;;;;;1.80;99.50;101349.94;4945384;28;20043;-84
2021/01/07 07:51:09;;;;;;;6.50;3.65;;;;;;;1.63;99.53;101323.69;4949837;29;20152;-82
2021/01/07 07:53:35;;;;;;;4.30;3.90;;;;;;;1.93;99.35;101357.16;4950872;29;20031;-83
2021/01/07 07:56:01;;;;;;;11.05;5.28;;;;;;;1.95;99.30;101363.22;4922157;29;20035;-83
2021/01/07 07:58:27;;;;;;;6.63;4.25;;;;;;;1.96;99.44;101365.75;4909910;29;20749;-76
2021/01/07 08:00:57;;;;;;;6.40;3.95;;;;;;;1.91;99.47;101357.22;4938345;28;20129;-75
2021/01/07 08:03:27;;;;;;;4.40;3.75;;;;;;;1.82;99.43;101337.56;4944227;29;20126;-78
2021/01/07 08:05:53;;;;;;;8.43;4.15;;;;;;;1.97;99.98;101367.44;4945144;28;20078;-78
2021/01/07 08:08:23;;;;;;;4.72;3.30;;;;;;;2.00;99.60;101369.03;4936559;28;20093;-83
2021/01/07 08:10:48;;;;;;;7.38;4.35;;;;;;;1.89;99.20;101353.00;4929147;28;20039;-88
2021/01/07 08:13:14;;;;;;;5.13;3.90;;;;;;;1.82;98.96;101331.44;4950113;28;20471;-89
2021/01/07 08:15:51;;;;;;;6.15;4.45;;;;;;;2.06;99.40;101370.50;4944828;28;20085;-76
2021/01/07 08:18:17;;;;;;;6.88;4.20;;;;;;;1.93;98.92;101344.84;4931615;29;20552;-90
2021/01/07 08:20:43;;;;;;;6.43;4.50;;;;;;;2.13;98.35;101377.13;4951346;28;20310;-89
2021/01/07 08:23:10;;;;;;;6.28;4.82;;;;;;;2.17;98.61;101377.81;4945731;29;20495;-91
2021/01/07 08:25:36;;;;;;;8.15;4.95;;;;;;;1.96;98.30;101341.22;4917403;28;20039;-88
2021/01/07 08:28:12;;;;;;;7.72;5.43;;;;;;;2.19;98.60;101381.22;4943734;28;20091;-89
2021/01/07 08:30:43;;;;;;;7.55;5.13;;;;;;;2.02;98.21;101350.56;4950303;28;20542;-85
2021/01/07 08:33:10;;;;;;;8.57;5.55;;;;;;;2.06;98.57;101352.94;4914455;29;20395;-79
2021/01/07 08:35:36;;;;;;;9.90;6.47;;;;;;;2.23;98.36;101386.22;4947790;28;20031;-82
2021/01/07 08:38:01;;;;;;;9.77;6.68;;;;;;;2.29;98.17;101385.00;4946045;28;20023;-83
2021/01/07 08:40:27;;;;;;;5.70;4.65;;;;;;;2.35;97.78;101386.44;4955105;28;20387;-83
2021/01/07 08:42:53;;;;;;;11.57;5.10;;;;;;;2.36;98.09;101393.41;4937297;28;20023;-83
2021/01/07 08:45:18;;;;;;;7.35;4.57;;;;;;;2.22;97.68;101360.81;4925250;29;20114;-83
2021/01/07 08:47:44;;;;;;;5.03;4.20;;;;;;;2.45;97.85;101387.63;4943206;28;20035;-82
2021/01/07 08:50:10;;;;;;;7.72;4.30;;;;;;;2.38;97.86;101378.38;4944109;28;20462;-82
2021/01/07 08:52:56;;;;;;;6.82;4.15;;;;;;;2.48;97.79;101386.63;4934408;28;20035;-82
2021/01/07 08:55:48;;;;;;;6.47;4.20;;;;;;;2.52;97.76;101386.34;4935441;28;20106;-81
2021/01/07 08:58:24;;;;;;;7.35;4.03;;;;;;;2.24;97.52;101334.41;4927204;29;20070;-81
2021/01/07 09:00:50;;;;;;;6.70;4.40;;;;;;;2.36;97.32;101352.16;4937716;28;20123;-81
2021/01/07 09:03:16;;;;;;;7.70;4.90;;;;;;;2.52;97.83;101385.50;4937670;28;20050;-81
2021/01/07 09:05:42;;;;;;;7.13;4.70;;;;;;;2.43;97.93;101366.66;4947816;28;20494;-79
2021/01/07 09:08:08;;;;;;;8.43;4.68;;;;;;;2.56;97.93;101392.28;4924418;29;20524;-79
2021/01/07 09:10:34;;;;;;;7.75;4.25;;;;;;;2.41;97.48;101359.78;4931383;28;20047;-79
2021/01/07 09:12:59;;;;;;;7.22;4.70;;;;;;;2.38;98.20;101360.78;4941846;28;20362;-81
2021/01/07 09:15:25;;;;;;;7.95;4.40;;;;;;;2.59;98.24;101386.84;4908105;29;20043;-80
2021/01/07 09:17:57;;;;;;;6.80;3.75;;;;;;;2.43;98.22;101358.75;4922875;28;20524;-81
2021/01/07 09:20:29;;;;;;;7.15;4.10;;;;;;;2.65;98.30;101386.50;4923947;29;20430;-80
2021/01/07 09:23:01;;;;;;;8.05;3.97;;;;;;;2.50;98.32;101368.94;4954232;28;20122;-81
2021/01/07 09:25:26;;;;;;;7.07;3.92;;;;;;;2.60;98.34;101384.13;4939053;28;20027;-81
2021/01/07 09:27:52;;;;;;;6.72;3.33;;;;;;;2.72;98.14;101392.25;4921486;29;20635;-79
2021/01/07 09:30:18;;;;;;;6.90;2.40;;;;;;;2.71;98.11;101386.16;4943569;28;21328;-79
2021/01/07 09:32:44;;;;;;;4.85;2.50;;;;;;;2.79;97.88;101396.25;4948936;28;20444;-80
2021/01/07 09:35:10;;;;;;;8.60;3.70;;;;;;;2.78;97.81;101398.97;4939774;28;20118;-80
2021/01/07 09:37:36;;;;;;;5.65;2.75;;;;;;;2.47;98.22;101342.78;4946447;28;20051;-80
2021/01/07 09:40:03;;;;;;;7.00;2.40;;;;;;;2.66;98.46;101372.38;4947571;28;20122;-79
2021/01/07 09:42:32;;;;;;;7.07;2.67;;;;;;;2.69;97.86;101352.91;4922141;28;20771;-79
2021/01/07 09:45:01;;;;;;;4.03;2.40;;;;;;;2.89;97.05;101400.03;4923292;28;20041;-79
2021/01/07 09:47:26;;;;;;;4.97;2.30;;;;;;;2.90;96.58;101401.75;4942267;28;20028;-79
2021/01/07 09:49:52;;;;;;;4.85;2.40;;;;;;;2.88;96.09;101394.88;4942718;28;20042;-79
2021/01/07 09:52:18;;;;;;;4.22;2.05;;;;;;;2.85;96.52;101397.69;4940762;28;20039;-79
2021/01/07 09:54:43;;;;;;;6.72;2.47;;;;;;;2.58;96.67;101327.19;4946455;28;20031;-79
2021/01/07 09:57:09;;;;;;;5.28;2.10;;;;;;;2.74;95.78;101358.75;4918265;28;20036;-78
2021/01/07 09:59:35;;;;;;;7.25;2.05;;;;;;;2.95;95.74;101387.44;4938689;28;20055;-79
2021/01/07 10:02:02;;;;;;;4.00;1.80;;;;;;;2.98;95.75;101388.13;4933778;28;20079;-78
2021/01/07 10:04:30;;;;;;;6.33;2.13;;;;;;;3.03;95.57;101401.03;4932663;28;20054;-79
2021/01/07 10:06:55;;;;;;;6.03;2.05;;;;;;;2.81;95.46;101362.75;4937170;28;20478;-78
2021/01/07 10:09:21;;;;;;;7.45;2.28;;;;;;;2.80;94.98;101357.53;4957554;28;20133;-79
2021/01/07 10:11:50;;;;;;;3.63;1.42;;;;;;;3.07;94.98;101392.00;4935446;28;20057;-79
2021/01/07 10:14:16;;;;;;;3.25;1.50;;;;;;;2.99;94.45;101388.94;4946629;28;20429;-79
2021/01/07 10:16:49;;;;;;;4.55;1.40;;;;;;;3.05;94.99;101389.44;4940583;28;20057;-79
2021/01/07 10:19:15;;;;;;;4.10;1.90;;;;;;;3.08;95.17;101387.56;4939995;28;20027;-79
2021/01/07 10:21:41;;;;;;;2.22;1.80;;;;;;;2.99;95.10;101370.47;4941420;28;20031;-79
2021/01/07 10:24:07;;;;;;;4.10;1.90;;;;;;;2.93;95.32;101358.53;4930489;29;20129;-79
2021/01/07 10:26:33;;;;;;;4.18;1.75;;;;;;;3.16;95.17;101388.81;4944458;28;20059;-79
2021/01/07 10:28:58;;;;;;;4.00;1.58;;;;;;;3.19;95.65;101391.25;4954159;28;20114;-79
2021/01/07 10:31:24;;;;;;;4.38;1.55;;;;;;;3.21;95.15;101386.75;4944655;28;20062;-78
2021/01/07 10:33:49;;;;;;;4.20;1.65;;;;;;;3.01;95.02;101351.03;4930125;28;20713;-79
2021/01/07 10:36:15;;;;;;;7.03;1.77;;;;;;;3.37;95.31;101386.66;4902495;28;20524;-79
2021/01/07 10:38:41;;;;;;;3.33;1.40;;;;;;;3.41;94.58;101386.50;4936845;28;20061;-78
2021/01/07 10:41:07;;;;;;;3.00;1.10;;;;;;;3.41;94.33;101375.94;4918461;28;20039;-79
2021/01/07 10:43:33;;;;;;;5.43;1.65;;;;;;;3.20;94.26;101342.84;4936695;28;20039;-78
2021/01/07 10:46:02;;;;;;;8.32;2.20;;;;;;;3.36;94.05;101365.66;4937148;28;20126;-79
2021/01/07 10:48:28;;;;;;;7.10;1.90;;;;;;;3.17;94.22;101332.47;4932407;28;20065;-79
2021/01/07 10:50:53;;;;;;;5.82;2.13;;;;;;;3.46;93.60;101369.44;4935026;28;20122;-78
2021/01/07 10:53:36;;;;;;;6.97;2.10;;;;;;;3.45;93.56;101367.72;4934247;28;20058;-79
2021/01/07 10:56:10;;;;;;;10.77;3.47;;;;;;;3.31;93.83;101344.84;4940199;28;20050;-78
2021/01/07 10:58:47;;;;;;;8.18;2.28;;;;;;;3.54;93.35;101374.25;4925059;28;20035;-78
2021/01/07 11:01:31;;;;;;;7.18;2.00;;;;;;;3.54;92.72;101371.59;4935699;28;20038;-79
2021/01/07 11:04:15;;;;;;;7.93;2.15;;;;;;;3.50;93.05;101367.44;4954650;28;20069;-78
2021/01/07 11:07:17;;;;;;;11.77;3.50;;;;;;;3.47;91.88;101362.34;4952746;28;20058;-78
2021/01/07 11:09:46;;;;;;;9.05;2.72;;;;;;;3.31;91.93;101363.31;4944208;28;20050;-77
2021/01/07 11:12:26;;;;;;;7.03;2.50;;;;;;;3.20;92.59;101355.16;4919880;28;20399;-77
2021/01/07 11:15:02;;;;;;;5.05;1.92;;;;;;;3.17;92.62;101350.09;4947641;28;20038;-77
2021/01/07 11:17:28;;;;;;;8.35;1.90;;;;;;;3.15;92.74;101351.97;4950919;28;20316;-77
2021/01/07 11:19:53;;;;;;;6.47;2.13;;;;;;;3.02;93.65;101333.41;4928741;28;20074;-77
2021/01/07 11:22:26;;;;;;;6.53;1.77;;;;;;;3.17;93.57;101347.47;4933042;28;20421;-77
2021/01/07 11:24:54;;;;;;;7.65;1.92;;;;;;;2.94;93.84;101318.03;4952623;28;20043;-75
2021/01/07 11:27:23;;;;;;;8.48;2.25;;;;;;;2.80;93.65;101284.59;4942414;28;20059;-89
2021/01/07 11:29:50;;;;;;;6.80;2.10;;;;;;;3.19;94.29;101337.69;4941620;28;20548;-82
2021/01/07 11:32:16;;;;;;;9.27;2.25;;;;;;;3.22;94.24;101334.84;4942248;28;20137;-75
2021/01/07 11:34:41;;;;;;;10.20;3.38;;;;;;;3.27;93.86;101330.13;4944090;28;20158;-76